sensor_id;sensor_type;location;lat;lon;timestamp;P1;durP1;ratioP1;P2;durP2;ratioP2
68866;SDS011;56451;44.804;20.476;2023-12-07T00:01:31;23.08;;;12.65;;
68866;SDS011;56451;44.804;20.476;2023-12-07T00:04:17;26.38;;;13.05;;
68866;SDS011;56451;44.804;20.476;2023-12-07T00:07:03;25.13;;;11.73;;
68866;SDS011;56451;44.804;20.476;2023-12-07T00:09:49;24.98;;;13.32;;
68866;SDS011;56451;44.804;20.476;2023-12-07T00:12:36;23.15;;;12.80;;
68866;SDS011;56451;44.804;20.476;2023-12-07T00:15:22;23.25;;;12.40;;
68866;SDS011;56451;44.804;20.476;2023-12-07T00:17:48;21.48;;;12.88;;
68866;SDS011;56451;44.804;20.476;2023-12-07T00:20:14;24.27;;;13.67;;
68866;SDS011;56451;44.804;20.476;2023-12-07T00:22:40;24.88;;;12.55;;
68866;SDS011;56451;44.804;20.476;2023-12-07T00:25:07;28.58;;;12.82;;
68866;SDS011;56451;44.804;20.476;2023-12-07T00:27:52;22.88;;;13.15;;
68866;SDS011;56451;44.804;20.476;2023-12-07T00:30:19;23.42;;;13.23;;
68866;SDS011;56451;44.804;20.476;2023-12-07T00:33:04;25.20;;;13.07;;
68866;SDS011;56451;44.804;20.476;2023-12-07T00:35:51;25.90;;;13.10;;
68866;SDS011;56451;44.804;20.476;2023-12-07T00:38:17;23.38;;;13.23;;
68866;SDS011;56451;44.804;20.476;2023-12-07T00:41:03;24.20;;;12.20;;
68866;SDS011;56451;44.804;20.476;2023-12-07T00:43:49;25.38;;;13.23;;
68866;SDS011;56451;44.804;20.476;2023-12-07T00:46:35;25.63;;;14.20;;
68866;SDS011;56451;44.804;20.476;2023-12-07T00:49:22;26.88;;;13.70;;
68866;SDS011;56451;44.804;20.476;2023-12-07T00:52:08;23.95;;;13.55;;
68866;SDS011;56451;44.804;20.476;2023-12-07T00:54:54;24.73;;;12.57;;
68866;SDS011;56451;44.804;20.476;2023-12-07T00:57:40;21.85;;;12.45;;
68866;SDS011;56451;44.804;20.476;2023-12-07T01:00:27;23.80;;;13.60;;
68866;SDS011;56451;44.804;20.476;2023-12-07T01:03:13;26.02;;;13.60;;
68866;SDS011;56451;44.804;20.476;2023-12-07T01:05:59;26.25;;;13.48;;
68866;SDS011;56451;44.804;20.476;2023-12-07T01:08:47;29.38;;;12.93;;
68866;SDS011;56451;44.804;20.476;2023-12-07T01:11:33;23.38;;;12.80;;
68866;SDS011;56451;44.804;20.476;2023-12-07T01:14:19;27.57;;;14.20;;
68866;SDS011;56451;44.804;20.476;2023-12-07T01:17:06;25.48;;;13.55;;
68866;SDS011;56451;44.804;20.476;2023-12-07T01:19:52;25.13;;;13.68;;
68866;SDS011;56451;44.804;20.476;2023-12-07T01:22:39;24.80;;;13.73;;
68866;SDS011;56451;44.804;20.476;2023-12-07T01:25:25;28.50;;;14.07;;
68866;SDS011;56451;44.804;20.476;2023-12-07T01:28:11;25.73;;;14.17;;
68866;SDS011;56451;44.804;20.476;2023-12-07T01:30:40;29.33;;;14.43;;
68866;SDS011;56451;44.804;20.476;2023-12-07T01:33:06;26.90;;;14.20;;
68866;SDS011;56451;44.804;20.476;2023-12-07T01:35:32;26.10;;;14.10;;
68866;SDS011;56451;44.804;20.476;2023-12-07T01:37:58;25.67;;;13.43;;
68866;SDS011;56451;44.804;20.476;2023-12-07T01:40:24;24.98;;;13.00;;
68866;SDS011;56451;44.804;20.476;2023-12-07T01:42:53;28.17;;;14.18;;
68866;SDS011;56451;44.804;20.476;2023-12-07T01:45:39;27.50;;;13.85;;
68866;SDS011;56451;44.804;20.476;2023-12-07T01:48:25;24.02;;;13.27;;
68866;SDS011;56451;44.804;20.476;2023-12-07T01:51:12;24.30;;;13.27;;
68866;SDS011;56451;44.804;20.476;2023-12-07T01:53:58;24.60;;;12.50;;
68866;SDS011;56451;44.804;20.476;2023-12-07T01:56:44;24.92;;;13.00;;
68866;SDS011;56451;44.804;20.476;2023-12-07T01:59:30;26.90;;;13.82;;
68866;SDS011;56451;44.804;20.476;2023-12-07T02:02:17;25.85;;;13.00;;
68866;SDS011;56451;44.804;20.476;2023-12-07T02:05:04;23.77;;;12.00;;
68866;SDS011;56451;44.804;20.476;2023-12-07T02:07:50;22.85;;;12.60;;
68866;SDS011;56451;44.804;20.476;2023-12-07T02:10:37;24.77;;;12.65;;
68866;SDS011;56451;44.804;20.476;2023-12-07T02:13:23;24.38;;;12.98;;
68866;SDS011;56451;44.804;20.476;2023-12-07T02:16:24;24.15;;;12.25;;
68866;SDS011;56451;44.804;20.476;2023-12-07T02:22:09;25.63;;;13.20;;
68866;SDS011;56451;44.804;20.476;2023-12-07T02:25:04;27.08;;;14.15;;
68866;SDS011;56451;44.804;20.476;2023-12-07T02:27:52;25.35;;;12.98;;
68866;SDS011;56451;44.804;20.476;2023-12-07T02:30:38;28.52;;;13.82;;
68866;SDS011;56451;44.804;20.476;2023-12-07T02:33:24;28.13;;;14.03;;
68866;SDS011;56451;44.804;20.476;2023-12-07T02:36:12;24.52;;;12.52;;
68866;SDS011;56451;44.804;20.476;2023-12-07T02:39:00;24.60;;;12.85;;
68866;SDS011;56451;44.804;20.476;2023-12-07T02:41:47;27.13;;;12.57;;
68866;SDS011;56451;44.804;20.476;2023-12-07T02:44:34;23.23;;;12.40;;
68866;SDS011;56451;44.804;20.476;2023-12-07T02:47:22;25.33;;;13.10;;
68866;SDS011;56451;44.804;20.476;2023-12-07T02:50:08;29.40;;;13.23;;
68866;SDS011;56451;44.804;20.476;2023-12-07T02:52:55;28.48;;;13.32;;
68866;SDS011;56451;44.804;20.476;2023-12-07T02:55:40;25.17;;;12.52;;
68866;SDS011;56451;44.804;20.476;2023-12-07T02:58:27;25.38;;;13.35;;
68866;SDS011;56451;44.804;20.476;2023-12-07T03:01:13;30.50;;;13.83;;
68866;SDS011;56451;44.804;20.476;2023-12-07T03:03:59;34.15;;;15.35;;
68866;SDS011;56451;44.804;20.476;2023-12-07T03:06:45;31.27;;;15.27;;
68866;SDS011;56451;44.804;20.476;2023-12-07T03:09:31;29.58;;;14.48;;
68866;SDS011;56451;44.804;20.476;2023-12-07T03:12:17;28.33;;;13.63;;
68866;SDS011;56451;44.804;20.476;2023-12-07T03:15:04;26.63;;;13.00;;
68866;SDS011;56451;44.804;20.476;2023-12-07T03:17:50;28.40;;;13.60;;
68866;SDS011;56451;44.804;20.476;2023-12-07T03:20:36;26.35;;;13.80;;
68866;SDS011;56451;44.804;20.476;2023-12-07T03:23:02;27.73;;;13.63;;
68866;SDS011;56451;44.804;20.476;2023-12-07T03:25:49;26.40;;;13.68;;
68866;SDS011;56451;44.804;20.476;2023-12-07T03:28:15;28.37;;;13.57;;
68866;SDS011;56451;44.804;20.476;2023-12-07T03:31:01;27.60;;;13.02;;
68866;SDS011;56451;44.804;20.476;2023-12-07T03:33:47;29.00;;;14.43;;
68866;SDS011;56451;44.804;20.476;2023-12-07T03:36:34;28.75;;;14.35;;
68866;SDS011;56451;44.804;20.476;2023-12-07T03:39:20;24.75;;;13.52;;
68866;SDS011;56451;44.804;20.476;2023-12-07T03:41:51;28.00;;;13.60;;
68866;SDS011;56451;44.804;20.476;2023-12-07T03:44:37;29.33;;;13.27;;
68866;SDS011;56451;44.804;20.476;2023-12-07T03:47:23;27.00;;;14.00;;
68866;SDS011;56451;44.804;20.476;2023-12-07T03:49:49;27.27;;;13.77;;
68866;SDS011;56451;44.804;20.476;2023-12-07T03:52:15;33.37;;;14.73;;
68866;SDS011;56451;44.804;20.476;2023-12-07T03:54:40;28.75;;;14.20;;
68866;SDS011;56451;44.804;20.476;2023-12-07T03:57:07;28.77;;;14.15;;
68866;SDS011;56451;44.804;20.476;2023-12-07T03:59:35;32.93;;;14.47;;
68866;SDS011;56451;44.804;20.476;2023-12-07T04:02:02;31.70;;;14.43;;
68866;SDS011;56451;44.804;20.476;2023-12-07T04:04:28;29.33;;;14.70;;
68866;SDS011;56451;44.804;20.476;2023-12-07T04:06:54;32.50;;;15.30;;
68866;SDS011;56451;44.804;20.476;2023-12-07T04:09:20;30.17;;;13.93;;
68866;SDS011;56451;44.804;20.476;2023-12-07T04:12:07;26.70;;;13.33;;
68866;SDS011;56451;44.804;20.476;2023-12-07T04:14:53;25.77;;;13.43;;
68866;SDS011;56451;44.804;20.476;2023-12-07T04:17:40;28.38;;;13.80;;
68866;SDS011;56451;44.804;20.476;2023-12-07T04:20:06;27.90;;;13.63;;
68866;SDS011;56451;44.804;20.476;2023-12-07T04:22:33;27.02;;;13.35;;
68866;SDS011;56451;44.804;20.476;2023-12-07T04:25:19;27.73;;;12.60;;
68866;SDS011;56451;44.804;20.476;2023-12-07T04:28:05;23.92;;;12.63;;
68866;SDS011;56451;44.804;20.476;2023-12-07T04:30:51;25.95;;;13.32;;
68866;SDS011;56451;44.804;20.476;2023-12-07T04:33:37;27.23;;;13.02;;
68866;SDS011;56451;44.804;20.476;2023-12-07T04:36:23;26.85;;;12.63;;
68866;SDS011;56451;44.804;20.476;2023-12-07T04:38:50;26.97;;;13.23;;
68866;SDS011;56451;44.804;20.476;2023-12-07T04:41:19;24.63;;;12.48;;
68866;SDS011;56451;44.804;20.476;2023-12-07T04:44:05;31.13;;;13.80;;
68866;SDS011;56451;44.804;20.476;2023-12-07T04:46:31;26.52;;;12.63;;
68866;SDS011;56451;44.804;20.476;2023-12-07T04:48:57;26.92;;;13.55;;
68866;SDS011;56451;44.804;20.476;2023-12-07T04:51:43;25.43;;;13.60;;
68866;SDS011;56451;44.804;20.476;2023-12-07T04:54:29;26.70;;;13.48;;
68866;SDS011;56451;44.804;20.476;2023-12-07T04:57:15;29.30;;;14.20;;
68866;SDS011;56451;44.804;20.476;2023-12-07T04:59:42;30.10;;;14.30;;
68866;SDS011;56451;44.804;20.476;2023-12-07T05:02:29;26.33;;;15.23;;
68866;SDS011;56451;44.804;20.476;2023-12-07T05:05:15;31.37;;;14.43;;
68866;SDS011;56451;44.804;20.476;2023-12-07T05:08:01;27.63;;;13.98;;
68866;SDS011;56451;44.804;20.476;2023-12-07T05:10:48;28.08;;;14.25;;
68866;SDS011;56451;44.804;20.476;2023-12-07T05:13:14;32.38;;;14.35;;
68866;SDS011;56451;44.804;20.476;2023-12-07T05:16:00;25.60;;;13.05;;
68866;SDS011;56451;44.804;20.476;2023-12-07T05:18:46;30.43;;;14.50;;
68866;SDS011;56451;44.804;20.476;2023-12-07T05:21:32;25.70;;;13.45;;
68866;SDS011;56451;44.804;20.476;2023-12-07T05:24:18;26.08;;;12.93;;
68866;SDS011;56451;44.804;20.476;2023-12-07T05:27:07;23.98;;;12.75;;
68866;SDS011;56451;44.804;20.476;2023-12-07T05:30:02;24.95;;;12.50;;
68866;SDS011;56451;44.804;20.476;2023-12-07T05:32:48;25.93;;;11.93;;
68866;SDS011;56451;44.804;20.476;2023-12-07T05:35:34;23.75;;;11.63;;
68866;SDS011;56451;44.804;20.476;2023-12-07T05:38:01;24.63;;;11.80;;
68866;SDS011;56451;44.804;20.476;2023-12-07T05:40:27;21.60;;;11.20;;
68866;SDS011;56451;44.804;20.476;2023-12-07T05:42:54;21.73;;;11.80;;
68866;SDS011;56451;44.804;20.476;2023-12-07T05:45:22;22.25;;;10.57;;
68866;SDS011;56451;44.804;20.476;2023-12-07T05:47:48;24.73;;;11.68;;
68866;SDS011;56451;44.804;20.476;2023-12-07T05:50:14;20.33;;;10.43;;
68866;SDS011;56451;44.804;20.476;2023-12-07T05:52:47;20.85;;;10.52;;
68866;SDS011;56451;44.804;20.476;2023-12-07T05:55:13;22.23;;;10.30;;
68866;SDS011;56451;44.804;20.476;2023-12-07T05:57:39;21.70;;;10.63;;
68866;SDS011;56451;44.804;20.476;2023-12-07T06:00:06;20.98;;;10.13;;
68866;SDS011;56451;44.804;20.476;2023-12-07T06:02:51;20.88;;;10.65;;
68866;SDS011;56451;44.804;20.476;2023-12-07T06:05:18;21.23;;;10.27;;
68866;SDS011;56451;44.804;20.476;2023-12-07T06:07:44;20.73;;;10.43;;
68866;SDS011;56451;44.804;20.476;2023-12-07T06:10:30;19.00;;;10.25;;
68866;SDS011;56451;44.804;20.476;2023-12-07T06:13:16;19.73;;;11.00;;
68866;SDS011;56451;44.804;20.476;2023-12-07T06:16:02;17.80;;;9.68;;
68866;SDS011;56451;44.804;20.476;2023-12-07T06:18:28;17.85;;;9.50;;
68866;SDS011;56451;44.804;20.476;2023-12-07T06:20:54;19.53;;;9.27;;
68866;SDS011;56451;44.804;20.476;2023-12-07T06:23:21;15.77;;;8.63;;
68866;SDS011;56451;44.804;20.476;2023-12-07T06:26:07;17.23;;;9.57;;
68866;SDS011;56451;44.804;20.476;2023-12-07T06:28:33;17.02;;;8.80;;
68866;SDS011;56451;44.804;20.476;2023-12-07T06:31:19;13.13;;;7.13;;
68866;SDS011;56451;44.804;20.476;2023-12-07T06:33:47;15.93;;;8.43;;
68866;SDS011;56451;44.804;20.476;2023-12-07T06:36:20;15.05;;;7.80;;
68866;SDS011;56451;44.804;20.476;2023-12-07T06:38:47;16.45;;;8.40;;
68866;SDS011;56451;44.804;20.476;2023-12-07T06:41:34;16.55;;;8.68;;
68866;SDS011;56451;44.804;20.476;2023-12-07T06:44:21;16.00;;;8.97;;
68866;SDS011;56451;44.804;20.476;2023-12-07T06:46:48;18.13;;;9.50;;
68866;SDS011;56451;44.804;20.476;2023-12-07T06:49:15;16.85;;;9.88;;
68866;SDS011;56451;44.804;20.476;2023-12-07T06:51:41;18.38;;;10.73;;
68866;SDS011;56451;44.804;20.476;2023-12-07T06:54:07;17.35;;;10.02;;
68866;SDS011;56451;44.804;20.476;2023-12-07T06:56:33;19.73;;;10.10;;
68866;SDS011;56451;44.804;20.476;2023-12-07T06:58:59;18.00;;;9.27;;
68866;SDS011;56451;44.804;20.476;2023-12-07T07:01:25;19.10;;;10.55;;
68866;SDS011;56451;44.804;20.476;2023-12-07T07:03:51;19.15;;;9.98;;
68866;SDS011;56451;44.804;20.476;2023-12-07T07:06:17;20.17;;;10.13;;
68866;SDS011;56451;44.804;20.476;2023-12-07T07:08:43;21.48;;;11.43;;
68866;SDS011;56451;44.804;20.476;2023-12-07T07:11:11;18.83;;;10.15;;
68866;SDS011;56451;44.804;20.476;2023-12-07T07:13:39;17.42;;;9.93;;
68866;SDS011;56451;44.804;20.476;2023-12-07T07:16:09;20.63;;;11.50;;
68866;SDS011;56451;44.804;20.476;2023-12-07T07:18:39;21.20;;;11.38;;
68866;SDS011;56451;44.804;20.476;2023-12-07T07:21:06;19.58;;;11.02;;
68866;SDS011;56451;44.804;20.476;2023-12-07T07:23:52;22.50;;;11.85;;
68866;SDS011;56451;44.804;20.476;2023-12-07T07:26:39;24.23;;;11.90;;
68866;SDS011;56451;44.804;20.476;2023-12-07T07:29:04;21.40;;;10.63;;
68866;SDS011;56451;44.804;20.476;2023-12-07T07:31:31;21.48;;;12.05;;
68866;SDS011;56451;44.804;20.476;2023-12-07T07:33:59;21.98;;;12.13;;
68866;SDS011;56451;44.804;20.476;2023-12-07T07:36:27;21.80;;;12.23;;
68866;SDS011;56451;44.804;20.476;2023-12-07T07:38:55;23.88;;;12.35;;
68866;SDS011;56451;44.804;20.476;2023-12-07T07:41:44;24.63;;;12.83;;
68866;SDS011;56451;44.804;20.476;2023-12-07T07:44:11;21.98;;;13.15;;
68866;SDS011;56451;44.804;20.476;2023-12-07T07:46:37;24.13;;;12.50;;
68866;SDS011;56451;44.804;20.476;2023-12-07T07:49:06;22.40;;;13.35;;
68866;SDS011;56451;44.804;20.476;2023-12-07T07:51:33;25.75;;;13.35;;
68866;SDS011;56451;44.804;20.476;2023-12-07T07:53:59;25.93;;;13.33;;
68866;SDS011;56451;44.804;20.476;2023-12-07T07:56:46;21.40;;;12.20;;
68866;SDS011;56451;44.804;20.476;2023-12-07T07:59:14;22.70;;;12.25;;
68866;SDS011;56451;44.804;20.476;2023-12-07T08:02:01;24.15;;;13.13;;
68866;SDS011;56451;44.804;20.476;2023-12-07T08:04:47;25.92;;;13.50;;
68866;SDS011;56451;44.804;20.476;2023-12-07T08:07:33;24.30;;;13.03;;
68866;SDS011;56451;44.804;20.476;2023-12-07T08:09:59;27.13;;;14.10;;
68866;SDS011;56451;44.804;20.476;2023-12-07T08:12:45;24.75;;;13.75;;
68866;SDS011;56451;44.804;20.476;2023-12-07T08:15:11;28.85;;;13.85;;
68866;SDS011;56451;44.804;20.476;2023-12-07T08:17:40;25.90;;;12.90;;
68866;SDS011;56451;44.804;20.476;2023-12-07T08:20:27;22.58;;;12.30;;
68866;SDS011;56451;44.804;20.476;2023-12-07T08:23:13;23.15;;;12.10;;
68866;SDS011;56451;44.804;20.476;2023-12-07T08:26:01;22.70;;;12.48;;
68866;SDS011;56451;44.804;20.476;2023-12-07T08:28:28;26.75;;;12.60;;
68866;SDS011;56451;44.804;20.476;2023-12-07T08:30:54;25.63;;;12.70;;
68866;SDS011;56451;44.804;20.476;2023-12-07T08:33:20;23.13;;;11.70;;
68866;SDS011;56451;44.804;20.476;2023-12-07T08:35:47;26.13;;;13.02;;
68866;SDS011;56451;44.804;20.476;2023-12-07T08:38:14;22.45;;;12.18;;
68866;SDS011;56451;44.804;20.476;2023-12-07T08:40:41;24.83;;;13.00;;
68866;SDS011;56451;44.804;20.476;2023-12-07T08:43:07;22.30;;;12.13;;
68866;SDS011;56451;44.804;20.476;2023-12-07T08:45:35;24.02;;;12.05;;
68866;SDS011;56451;44.804;20.476;2023-12-07T08:48:03;19.85;;;12.13;;
68866;SDS011;56451;44.804;20.476;2023-12-07T08:50:30;20.85;;;11.98;;
68866;SDS011;56451;44.804;20.476;2023-12-07T08:52:56;26.53;;;13.30;;
68866;SDS011;56451;44.804;20.476;2023-12-07T08:55:22;23.13;;;12.43;;
68866;SDS011;56451;44.804;20.476;2023-12-07T08:57:48;26.65;;;13.15;;
68866;SDS011;56451;44.804;20.476;2023-12-07T09:00:37;23.05;;;12.20;;
68866;SDS011;56451;44.804;20.476;2023-12-07T09:03:23;22.50;;;12.18;;
68866;SDS011;56451;44.804;20.476;2023-12-07T09:06:12;24.27;;;12.20;;
68866;SDS011;56451;44.804;20.476;2023-12-07T09:08:58;24.05;;;11.90;;
68866;SDS011;56451;44.804;20.476;2023-12-07T09:11:44;25.60;;;12.35;;
68866;SDS011;56451;44.804;20.476;2023-12-07T09:14:31;21.27;;;11.38;;
68866;SDS011;56451;44.804;20.476;2023-12-07T09:17:18;22.40;;;12.25;;
68866;SDS011;56451;44.804;20.476;2023-12-07T09:20:05;21.67;;;11.37;;
68866;SDS011;56451;44.804;20.476;2023-12-07T09:22:56;20.90;;;12.02;;
68866;SDS011;56451;44.804;20.476;2023-12-07T09:25:42;24.70;;;12.52;;
68866;SDS011;56451;44.804;20.476;2023-12-07T09:28:09;22.15;;;11.98;;
68866;SDS011;56451;44.804;20.476;2023-12-07T09:30:35;25.58;;;11.98;;
68866;SDS011;56451;44.804;20.476;2023-12-07T09:33:02;18.63;;;11.20;;
68866;SDS011;56451;44.804;20.476;2023-12-07T09:35:28;19.45;;;11.00;;
68866;SDS011;56451;44.804;20.476;2023-12-07T09:37:55;21.10;;;11.50;;
68866;SDS011;56451;44.804;20.476;2023-12-07T09:40:42;22.10;;;12.02;;
68866;SDS011;56451;44.804;20.476;2023-12-07T09:43:28;22.95;;;11.70;;
68866;SDS011;56451;44.804;20.476;2023-12-07T09:46:14;20.93;;;11.37;;
68866;SDS011;56451;44.804;20.476;2023-12-07T09:49:01;21.60;;;10.80;;
68866;SDS011;56451;44.804;20.476;2023-12-07T09:51:48;20.23;;;12.05;;
68866;SDS011;56451;44.804;20.476;2023-12-07T09:54:36;21.50;;;11.55;;
68866;SDS011;56451;44.804;20.476;2023-12-07T09:57:27;22.25;;;12.15;;
68866;SDS011;56451;44.804;20.476;2023-12-07T10:00:14;24.83;;;12.73;;
68866;SDS011;56451;44.804;20.476;2023-12-07T10:02:40;26.23;;;13.45;;
68866;SDS011;56451;44.804;20.476;2023-12-07T10:05:27;24.23;;;12.82;;
68866;SDS011;56451;44.804;20.476;2023-12-07T10:07:54;23.85;;;12.50;;
68866;SDS011;56451;44.804;20.476;2023-12-07T10:10:20;26.80;;;12.73;;
68866;SDS011;56451;44.804;20.476;2023-12-07T10:12:47;28.30;;;13.83;;
68866;SDS011;56451;44.804;20.476;2023-12-07T10:15:36;22.27;;;12.20;;
68866;SDS011;56451;44.804;20.476;2023-12-07T10:18:23;23.60;;;12.27;;
68866;SDS011;56451;44.804;20.476;2023-12-07T10:21:09;26.38;;;13.43;;
68866;SDS011;56451;44.804;20.476;2023-12-07T10:23:56;24.77;;;14.50;;
68866;SDS011;56451;44.804;20.476;2023-12-07T10:26:43;22.50;;;11.73;;
68866;SDS011;56451;44.804;20.476;2023-12-07T10:29:30;26.27;;;14.60;;
68866;SDS011;56451;44.804;20.476;2023-12-07T10:32:16;20.65;;;10.93;;
68866;SDS011;56451;44.804;20.476;2023-12-07T10:35:02;20.92;;;11.50;;
68866;SDS011;56451;44.804;20.476;2023-12-07T10:37:48;44.67;;;19.17;;
68866;SDS011;56451;44.804;20.476;2023-12-07T10:40:14;22.87;;;11.73;;
68866;SDS011;56451;44.804;20.476;2023-12-07T10:42:41;27.25;;;12.43;;
68866;SDS011;56451;44.804;20.476;2023-12-07T10:45:09;18.35;;;10.75;;
68866;SDS011;56451;44.804;20.476;2023-12-07T10:47:59;19.45;;;11.90;;
68866;SDS011;56451;44.804;20.476;2023-12-07T10:50:51;18.77;;;10.18;;
68866;SDS011;56451;44.804;20.476;2023-12-07T10:53:41;18.40;;;9.97;;
68866;SDS011;56451;44.804;20.476;2023-12-07T10:56:16;19.42;;;10.27;;
68866;SDS011;56451;44.804;20.476;2023-12-07T10:58:54;18.95;;;9.68;;
68866;SDS011;56451;44.804;20.476;2023-12-07T11:01:22;18.90;;;10.85;;
68866;SDS011;56451;44.804;20.476;2023-12-07T11:04:11;18.77;;;10.63;;
68866;SDS011;56451;44.804;20.476;2023-12-07T11:06:38;18.07;;;10.70;;
68866;SDS011;56451;44.804;20.476;2023-12-07T11:09:07;18.80;;;10.50;;
68866;SDS011;56451;44.804;20.476;2023-12-07T11:11:49;22.77;;;12.75;;
68866;SDS011;56451;44.804;20.476;2023-12-07T11:14:22;20.67;;;11.55;;
68866;SDS011;56451;44.804;20.476;2023-12-07T11:16:49;31.33;;;17.77;;
68866;SDS011;56451;44.804;20.476;2023-12-07T11:22:22;20.38;;;10.45;;
68866;SDS011;56451;44.804;20.476;2023-12-07T11:25:08;18.65;;;10.07;;
68866;SDS011;56451;44.804;20.476;2023-12-07T11:28:05;14.77;;;9.07;;
68866;SDS011;56451;44.804;20.476;2023-12-07T11:30:54;17.63;;;9.40;;
68866;SDS011;56451;44.804;20.476;2023-12-07T11:33:21;20.60;;;10.37;;
68866;SDS011;56451;44.804;20.476;2023-12-07T11:36:03;16.98;;;9.23;;
68866;SDS011;56451;44.804;20.476;2023-12-07T11:38:38;23.42;;;11.75;;
68866;SDS011;56451;44.804;20.476;2023-12-07T11:41:49;17.08;;;9.90;;
68866;SDS011;56451;44.804;20.476;2023-12-07T11:44:32;17.75;;;10.30;;
68866;SDS011;56451;44.804;20.476;2023-12-07T11:47:01;19.47;;;9.63;;
68866;SDS011;56451;44.804;20.476;2023-12-07T11:49:28;18.27;;;9.48;;
68866;SDS011;56451;44.804;20.476;2023-12-07T11:51:57;18.40;;;10.70;;
68866;SDS011;56451;44.804;20.476;2023-12-07T11:54:25;17.08;;;9.68;;
68866;SDS011;56451;44.804;20.476;2023-12-07T11:56:55;16.15;;;9.13;;
68866;SDS011;56451;44.804;20.476;2023-12-07T11:59:22;16.07;;;8.83;;
68866;SDS011;56451;44.804;20.476;2023-12-07T12:02:03;18.27;;;9.63;;
68866;SDS011;56451;44.804;20.476;2023-12-07T12:04:30;13.80;;;8.60;;
68866;SDS011;56451;44.804;20.476;2023-12-07T12:06:56;16.50;;;8.60;;
68866;SDS011;56451;44.804;20.476;2023-12-07T12:09:26;17.08;;;9.13;;
68866;SDS011;56451;44.804;20.476;2023-12-07T12:11:54;13.50;;;8.23;;
68866;SDS011;56451;44.804;20.476;2023-12-07T12:14:42;15.20;;;8.52;;
68866;SDS011;56451;44.804;20.476;2023-12-07T12:17:29;14.95;;;8.38;;
68866;SDS011;56451;44.804;20.476;2023-12-07T12:20:15;14.23;;;8.05;;
68866;SDS011;56451;44.804;20.476;2023-12-07T12:23:03;12.70;;;7.45;;
68866;SDS011;56451;44.804;20.476;2023-12-07T12:25:49;15.13;;;8.43;;
68866;SDS011;56451;44.804;20.476;2023-12-07T12:28:36;14.70;;;8.68;;
68866;SDS011;56451;44.804;20.476;2023-12-07T12:31:09;15.68;;;8.02;;
68866;SDS011;56451;44.804;20.476;2023-12-07T12:33:37;15.80;;;8.00;;
68866;SDS011;56451;44.804;20.476;2023-12-07T12:36:06;11.63;;;7.13;;
68866;SDS011;56451;44.804;20.476;2023-12-07T12:38:33;14.57;;;8.27;;
68866;SDS011;56451;44.804;20.476;2023-12-07T12:40:59;13.18;;;6.72;;
68866;SDS011;56451;44.804;20.476;2023-12-07T12:43:27;14.77;;;7.70;;
68866;SDS011;56451;44.804;20.476;2023-12-07T12:45:54;14.23;;;7.43;;
68866;SDS011;56451;44.804;20.476;2023-12-07T12:48:57;13.85;;;8.27;;
68866;SDS011;56451;44.804;20.476;2023-12-07T12:51:44;12.83;;;7.43;;
68866;SDS011;56451;44.804;20.476;2023-12-07T12:54:11;13.20;;;6.78;;
68866;SDS011;56451;44.804;20.476;2023-12-07T12:56:37;12.05;;;7.40;;
68866;SDS011;56451;44.804;20.476;2023-12-07T12:59:03;15.50;;;8.48;;
68866;SDS011;56451;44.804;20.476;2023-12-07T13:01:29;13.00;;;7.72;;
68866;SDS011;56451;44.804;20.476;2023-12-07T13:04:19;13.95;;;7.80;;
68866;SDS011;56451;44.804;20.476;2023-12-07T13:07:06;16.00;;;8.00;;
68866;SDS011;56451;44.804;20.476;2023-12-07T13:09:55;16.10;;;8.30;;
68866;SDS011;56451;44.804;20.476;2023-12-07T13:12:41;16.23;;;7.97;;
68866;SDS011;56451;44.804;20.476;2023-12-07T13:15:28;15.77;;;7.83;;
68866;SDS011;56451;44.804;20.476;2023-12-07T13:17:55;14.43;;;7.85;;
68866;SDS011;56451;44.804;20.476;2023-12-07T13:20:21;13.43;;;7.32;;
68866;SDS011;56451;44.804;20.476;2023-12-07T13:22:48;13.80;;;7.72;;
68866;SDS011;56451;44.804;20.476;2023-12-07T13:25:14;13.50;;;7.38;;
68866;SDS011;56451;44.804;20.476;2023-12-07T13:27:41;13.77;;;8.07;;
68866;SDS011;56451;44.804;20.476;2023-12-07T13:30:09;15.25;;;8.10;;
68866;SDS011;56451;44.804;20.476;2023-12-07T13:32:36;15.88;;;9.20;;
68866;SDS011;56451;44.804;20.476;2023-12-07T13:35:06;15.63;;;8.73;;
68866;SDS011;56451;44.804;20.476;2023-12-07T13:37:35;13.27;;;8.52;;
68866;SDS011;56451;44.804;20.476;2023-12-07T13:40:02;16.80;;;9.00;;
68866;SDS011;56451;44.804;20.476;2023-12-07T13:42:30;15.95;;;9.07;;
68866;SDS011;56451;44.804;20.476;2023-12-07T13:44:57;15.25;;;8.55;;
68866;SDS011;56451;44.804;20.476;2023-12-07T13:47:26;15.13;;;8.82;;
68866;SDS011;56451;44.804;20.476;2023-12-07T13:50:03;15.15;;;8.70;;
68866;SDS011;56451;44.804;20.476;2023-12-07T13:52:51;15.73;;;9.97;;
68866;SDS011;56451;44.804;20.476;2023-12-07T13:55:37;15.20;;;9.10;;
68866;SDS011;56451;44.804;20.476;2023-12-07T13:58:26;14.13;;;8.10;;
68866;SDS011;56451;44.804;20.476;2023-12-07T14:00:52;16.65;;;8.80;;
68866;SDS011;56451;44.804;20.476;2023-12-07T14:03:19;16.80;;;9.32;;
68866;SDS011;56451;44.804;20.476;2023-12-07T14:05:45;18.20;;;8.77;;
68866;SDS011;56451;44.804;20.476;2023-12-07T14:08:13;15.73;;;8.93;;
68866;SDS011;56451;44.804;20.476;2023-12-07T14:10:39;15.98;;;9.27;;
68866;SDS011;56451;44.804;20.476;2023-12-07T14:13:26;15.38;;;9.63;;
68866;SDS011;56451;44.804;20.476;2023-12-07T14:15:53;15.65;;;9.20;;
68866;SDS011;56451;44.804;20.476;2023-12-07T14:18:39;16.60;;;8.83;;
68866;SDS011;56451;44.804;20.476;2023-12-07T14:21:25;18.85;;;10.38;;
68866;SDS011;56451;44.804;20.476;2023-12-07T14:24:11;16.65;;;9.45;;
68866;SDS011;56451;44.804;20.476;2023-12-07T14:26:41;17.27;;;9.95;;
68866;SDS011;56451;44.804;20.476;2023-12-07T14:29:08;18.85;;;9.20;;
68866;SDS011;56451;44.804;20.476;2023-12-07T14:31:36;19.37;;;9.30;;
68866;SDS011;56451;44.804;20.476;2023-12-07T14:34:03;16.77;;;9.30;;
68866;SDS011;56451;44.804;20.476;2023-12-07T14:36:31;18.17;;;9.05;;
68866;SDS011;56451;44.804;20.476;2023-12-07T14:38:57;18.13;;;9.73;;
68866;SDS011;56451;44.804;20.476;2023-12-07T14:41:24;17.13;;;8.95;;
68866;SDS011;56451;44.804;20.476;2023-12-07T14:43:50;16.50;;;9.87;;
68866;SDS011;56451;44.804;20.476;2023-12-07T14:46:18;17.88;;;10.20;;
68866;SDS011;56451;44.804;20.476;2023-12-07T14:49:04;18.05;;;9.27;;
68866;SDS011;56451;44.804;20.476;2023-12-07T14:51:31;17.85;;;8.75;;
68866;SDS011;56451;44.804;20.476;2023-12-07T14:54:18;14.02;;;8.77;;
68866;SDS011;56451;44.804;20.476;2023-12-07T14:57:04;13.90;;;8.83;;
68866;SDS011;56451;44.804;20.476;2023-12-07T14:59:33;18.77;;;9.40;;
68866;SDS011;56451;44.804;20.476;2023-12-07T15:02:00;19.25;;;8.90;;
68866;SDS011;56451;44.804;20.476;2023-12-07T15:04:26;17.80;;;8.80;;
68866;SDS011;56451;44.804;20.476;2023-12-07T15:06:54;15.10;;;8.40;;
68866;SDS011;56451;44.804;20.476;2023-12-07T15:09:21;18.10;;;9.30;;
68866;SDS011;56451;44.804;20.476;2023-12-07T15:11:47;17.15;;;8.98;;
68866;SDS011;56451;44.804;20.476;2023-12-07T15:14:13;16.95;;;9.45;;
68866;SDS011;56451;44.804;20.476;2023-12-07T15:16:40;16.55;;;9.68;;